sensor_id;sensor_type;location;lat;lon;timestamp;temperature;humidity
64874;HTU21D;51367;45.204;38.576;2023-01-25T00:02:22;-3.76;74.47
64874;HTU21D;51367;45.204;38.576;2023-01-25T00:04:48;-3.78;74.46
64874;HTU21D;51367;45.204;38.576;2023-01-25T00:07:13;-3.80;74.44
64874;HTU21D;51367;45.204;38.576;2023-01-25T00:09:39;-3.82;74.46
64874;HTU21D;51367;45.204;38.576;2023-01-25T00:12:05;-3.83;74.46
64874;HTU21D;51367;45.204;38.576;2023-01-25T00:14:31;-3.87;74.46
64874;HTU21D;51367;45.204;38.576;2023-01-25T00:16:57;-3.91;74.47
64874;HTU21D;51367;45.204;38.576;2023-01-25T00:19:23;-3.95;74.47
64874;HTU21D;51367;45.204;38.576;2023-01-25T00:21:49;-3.96;74.51
64874;HTU21D;51367;45.204;38.576;2023-01-25T00:24:15;-4.00;74.52
64874;HTU21D;51367;45.204;38.576;2023-01-25T00:26:41;-4.02;74.54
64874;HTU21D;51367;45.204;38.576;2023-01-25T00:29:11;-4.06;74.54
64874;HTU21D;51367;45.204;38.576;2023-01-25T00:31:57;-4.09;74.57
64874;HTU21D;51367;45.204;38.576;2023-01-25T00:37:00;-4.14;74.60
64874;HTU21D;51367;45.204;38.576;2023-01-25T00:39:27;-4.15;74.61
64874;HTU21D;51367;45.204;38.576;2023-01-25T00:41:53;-4.21;74.62
64874;HTU21D;51367;45.204;38.576;2023-01-25T00:44:20;-4.21;74.64
64874;HTU21D;51367;45.204;38.576;2023-01-25T00:46:46;-4.24;74.62
64874;HTU21D;51367;45.204;38.576;2023-01-25T00:49:21;-4.26;74.64
64874;HTU21D;51367;45.204;38.576;2023-01-25T00:51:47;-4.30;74.64
64874;HTU21D;51367;45.204;38.576;2023-01-25T00:54:13;-4.39;74.60
64874;HTU21D;51367;45.204;38.576;2023-01-25T00:56:39;-4.51;74.67
64874;HTU21D;51367;45.204;38.576;2023-01-25T00:59:06;-4.59;74.85
64874;HTU21D;51367;45.204;38.576;2023-01-25T01:01:33;-4.63;74.96
64874;HTU21D;51367;45.204;38.576;2023-01-25T01:03:59;-4.65;74.98
64874;HTU21D;51367;45.204;38.576;2023-01-25T01:06:25;-4.71;74.96
64874;HTU21D;51367;45.204;38.576;2023-01-25T01:08:51;-4.79;75.01
64874;HTU21D;51367;45.204;38.576;2023-01-25T01:11:18;-4.85;75.25
64874;HTU21D;51367;45.204;38.576;2023-01-25T01:13:44;-4.95;75.21
64874;HTU21D;51367;45.204;38.576;2023-01-25T01:16:11;-4.99;75.33
64874;HTU21D;51367;45.204;38.576;2023-01-25T01:18:43;-5.02;75.32
64874;HTU21D;51367;45.204;38.576;2023-01-25T01:21:11;-5.04;75.41
64874;HTU21D;51367;45.204;38.576;2023-01-25T01:23:38;-5.08;75.31
64874;HTU21D;51367;45.204;38.576;2023-01-25T01:26:07;-5.10;75.31
64874;HTU21D;51367;45.204;38.576;2023-01-25T01:28:34;-5.15;75.27
64874;HTU21D;51367;45.204;38.576;2023-01-25T01:31:11;-5.17;75.31
64874;HTU21D;51367;45.204;38.576;2023-01-25T01:33:41;-5.19;75.32
64874;HTU21D;51367;45.204;38.576;2023-01-25T01:36:12;-5.19;75.31
64874;HTU21D;51367;45.204;38.576;2023-01-25T01:38:38;-5.18;75.28
64874;HTU21D;51367;45.204;38.576;2023-01-25T01:41:04;-5.22;75.24
64874;HTU21D;51367;45.204;38.576;2023-01-25T01:43:31;-5.26;75.17
64874;HTU21D;51367;45.204;38.576;2023-01-25T01:46:47;-5.30;75.19
64874;HTU21D;51367;45.204;38.576;2023-01-25T01:49:06;-5.31;75.21
64874;HTU21D;51367;45.204;38.576;2023-01-25T01:51:46;-5.37;75.18
64874;HTU21D;51367;45.204;38.576;2023-01-25T01:54:31;-5.39;75.23
64874;HTU21D;51367;45.204;38.576;2023-01-25T02:02:12;-5.39;75.09
64874;HTU21D;51367;45.204;38.576;2023-01-25T02:04:39;-5.42;75.09
64874;HTU21D;51367;45.204;38.576;2023-01-25T02:07:18;-5.41;75.10
64874;HTU21D;51367;45.204;38.576;2023-01-25T02:09:48;-5.43;75.09
64874;HTU21D;51367;45.204;38.576;2023-01-25T02:12:15;-5.43;75.09
64874;HTU21D;51367;45.204;38.576;2023-01-25T02:14:47;-5.45;75.06
64874;HTU21D;51367;45.204;38.576;2023-01-25T02:17:28;-5.45;75.07
64874;HTU21D;51367;45.204;38.576;2023-01-25T02:20:00;-5.46;75.09
64874;HTU21D;51367;45.204;38.576;2023-01-25T02:22:38;-5.46;75.05
64874;HTU21D;51367;45.204;38.576;2023-01-25T02:25:09;-5.45;75.00
64874;HTU21D;51367;45.204;38.576;2023-01-25T02:27:40;-5.52;74.92
64874;HTU21D;51367;45.204;38.576;2023-01-25T02:30:08;-5.54;74.99
64874;HTU21D;51367;45.204;38.576;2023-01-25T02:32:34;-5.54;75.05
64874;HTU21D;51367;45.204;38.576;2023-01-25T02:35:00;-5.55;75.02
64874;HTU21D;51367;45.204;38.576;2023-01-25T02:37:26;-5.58;75.04
64874;HTU21D;51367;45.204;38.576;2023-01-25T02:39:52;-5.60;75.03
64874;HTU21D;51367;45.204;38.576;2023-01-25T02:42:18;-5.60;75.06
64874;HTU21D;51367;45.204;38.576;2023-01-25T02:44:44;-5.64;75.01
64874;HTU21D;51367;45.204;38.576;2023-01-25T02:47:10;-5.68;75.09
64874;HTU21D;51367;45.204;38.576;2023-01-25T02:49:37;-5.68;75.13
64874;HTU21D;51367;45.204;38.576;2023-01-25T02:52:06;-5.71;75.06
64874;HTU21D;51367;45.204;38.576;2023-01-25T02:54:32;-5.73;75.09
64874;HTU21D;51367;45.204;38.576;2023-01-25T02:56:58;-5.74;75.15
64874;HTU21D;51367;45.204;38.576;2023-01-25T02:59:29;-5.75;75.13
64874;HTU21D;51367;45.204;38.576;2023-01-25T03:01:58;-5.76;75.10
64874;HTU21D;51367;45.204;38.576;2023-01-25T03:04:24;-5.78;75.07
64874;HTU21D;51367;45.204;38.576;2023-01-25T03:06:50;-5.82;75.06
64874;HTU21D;51367;45.204;38.576;2023-01-25T03:09:17;-5.87;75.06
64874;HTU21D;51367;45.204;38.576;2023-01-25T03:11:46;-5.92;75.23
64874;HTU21D;51367;45.204;38.576;2023-01-25T03:14:12;-6.02;75.21
64874;HTU21D;51367;45.204;38.576;2023-01-25T03:16:38;-6.06;75.34
64874;HTU21D;51367;45.204;38.576;2023-01-25T03:19:06;-6.05;75.41
64874;HTU21D;51367;45.204;38.576;2023-01-25T03:21:32;-6.06;75.40
64874;HTU21D;51367;45.204;38.576;2023-01-25T03:23:59;-6.05;75.34
64874;HTU21D;51367;45.204;38.576;2023-01-25T03:26:32;-6.06;75.33
64874;HTU21D;51367;45.204;38.576;2023-01-25T03:29:20;-6.05;75.28
64874;HTU21D;51367;45.204;38.576;2023-01-25T03:31:48;-6.05;75.23
64874;HTU21D;51367;45.204;38.576;2023-01-25T03:34:14;-6.06;75.17
64874;HTU21D;51367;45.204;38.576;2023-01-25T03:36:41;-6.05;75.14
64874;HTU21D;51367;45.204;38.576;2023-01-25T03:39:08;-6.06;75.13
64874;HTU21D;51367;45.204;38.576;2023-01-25T03:41:38;-6.07;75.12
64874;HTU21D;51367;45.204;38.576;2023-01-25T03:44:08;-6.08;75.09
64874;HTU21D;51367;45.204;38.576;2023-01-25T03:46:37;-6.14;75.06
64874;HTU21D;51367;45.204;38.576;2023-01-25T03:49:05;-6.16;75.16
64874;HTU21D;51367;45.204;38.576;2023-01-25T03:51:31;-6.16;75.19
64874;HTU21D;51367;45.204;38.576;2023-01-25T03:53:57;-6.17;75.18
64874;HTU21D;51367;45.204;38.576;2023-01-25T03:56:23;-6.17;75.17
64874;HTU21D;51367;45.204;38.576;2023-01-25T03:59:13;-6.21;75.17
64874;HTU21D;51367;45.204;38.576;2023-01-25T04:01:39;-6.22;75.20
64874;HTU21D;51367;45.204;38.576;2023-01-25T04:04:06;-6.21;75.22
64874;HTU21D;51367;45.204;38.576;2023-01-25T04:06:33;-6.21;75.22
64874;HTU21D;51367;45.204;38.576;2023-01-25T04:09:00;-6.20;75.20
64874;HTU21D;51367;45.204;38.576;2023-01-25T04:11:32;-6.20;75.18
64874;HTU21D;51367;45.204;38.576;2023-01-25T04:13:58;-6.19;75.14
64874;HTU21D;51367;45.204;38.576;2023-01-25T04:16:28;-6.18;75.13
64874;HTU21D;51367;45.204;38.576;2023-01-25T04:19:16;-6.20;75.09
64874;HTU21D;51367;45.204;38.576;2023-01-25T04:21:42;-6.21;75.09
64874;HTU21D;51367;45.204;38.576;2023-01-25T04:24:08;-6.22;75.08
64874;HTU21D;51367;45.204;38.576;2023-01-25T04:26:37;-6.26;75.08
64874;HTU21D;51367;45.204;38.576;2023-01-25T04:29:04;-6.29;75.05
64874;HTU21D;51367;45.204;38.576;2023-01-25T04:31:30;-6.31;75.09
64874;HTU21D;51367;45.204;38.576;2023-01-25T04:33:57;-6.33;75.15
64874;HTU21D;51367;45.204;38.576;2023-01-25T04:36:23;-6.33;75.18
64874;HTU21D;51367;45.204;38.576;2023-01-25T04:38:50;-6.32;75.21
64874;HTU21D;51367;45.204;38.576;2023-01-25T04:41:15;-6.31;75.23
64874;HTU21D;51367;45.204;38.576;2023-01-25T04:43:43;-6.28;75.18
64874;HTU21D;51367;45.204;38.576;2023-01-25T04:46:09;-6.28;75.15
64874;HTU21D;51367;45.204;38.576;2023-01-25T04:48:35;-6.27;75.11
64874;HTU21D;51367;45.204;38.576;2023-01-25T04:51:04;-6.28;75.06
64874;HTU21D;51367;45.204;38.576;2023-01-25T04:53:31;-6.27;75.11
64874;HTU21D;51367;45.204;38.576;2023-01-25T04:56:00;-6.28;75.10
64874;HTU21D;51367;45.204;38.576;2023-01-25T04:58:30;-6.27;75.13
64874;HTU21D;51367;45.204;38.576;2023-01-25T05:00:59;-6.27;75.15
64874;HTU21D;51367;45.204;38.576;2023-01-25T05:03:26;-6.22;75.23
64874;HTU21D;51367;45.204;38.576;2023-01-25T05:05:52;-6.17;75.25
64874;HTU21D;51367;45.204;38.576;2023-01-25T05:08:22;-6.13;75.22
64874;HTU21D;51367;45.204;38.576;2023-01-25T05:10:51;-6.07;75.24
64874;HTU21D;51367;45.204;38.576;2023-01-25T05:13:28;-5.98;75.23
64874;HTU21D;51367;45.204;38.576;2023-01-25T05:16:07;-5.91;75.16
64874;HTU21D;51367;45.204;38.576;2023-01-25T05:18:33;-5.85;75.10
64874;HTU21D;51367;45.204;38.576;2023-01-25T05:20:59;-5.77;75.04
64874;HTU21D;51367;45.204;38.576;2023-01-25T05:23:26;-5.70;75.01
64874;HTU21D;51367;45.204;38.576;2023-01-25T05:25:53;-5.63;74.96
64874;HTU21D;51367;45.204;38.576;2023-01-25T05:28:37;-5.57;74.89
64874;HTU21D;51367;45.204;38.576;2023-01-25T05:31:23;-5.49;74.83
64874;HTU21D;51367;45.204;38.576;2023-01-25T05:33:50;-5.41;74.80
64874;HTU21D;51367;45.204;38.576;2023-01-25T05:36:18;-5.34;74.75
64874;HTU21D;51367;45.204;38.576;2023-01-25T05:38:45;-5.30;74.69
64874;HTU21D;51367;45.204;38.576;2023-01-25T05:41:12;-5.27;74.67
64874;HTU21D;51367;45.204;38.576;2023-01-25T05:43:38;-5.25;74.73
64874;HTU21D;51367;45.204;38.576;2023-01-25T05:46:05;-5.19;74.83
64874;HTU21D;51367;45.204;38.576;2023-01-25T05:48:33;-5.13;74.93
64874;HTU21D;51367;45.204;38.576;2023-01-25T05:50:59;-5.02;74.96
64874;HTU21D;51367;45.204;38.576;2023-01-25T05:53:26;-4.91;74.99
64874;HTU21D;51367;45.204;38.576;2023-01-25T05:55:52;-4.79;74.96
64874;HTU21D;51367;45.204;38.576;2023-01-25T05:58:18;-4.67;74.92
64874;HTU21D;51367;45.204;38.576;2023-01-25T06:00:44;-4.59;74.82
64874;HTU21D;51367;45.204;38.576;2023-01-25T06:03:18;-4.51;74.86
64874;HTU21D;51367;45.204;38.576;2023-01-25T06:05:45;-4.41;74.91
64874;HTU21D;51367;45.204;38.576;2023-01-25T06:08:11;-4.29;74.86
64874;HTU21D;51367;45.204;38.576;2023-01-25T06:10:46;-4.20;74.76
64874;HTU21D;51367;45.204;38.576;2023-01-25T06:13:12;-4.11;74.70
64874;HTU21D;51367;45.204;38.576;2023-01-25T06:15:40;-4.04;74.67
64874;HTU21D;51367;45.204;38.576;2023-01-25T06:18:25;-3.94;74.60
64874;HTU21D;51367;45.204;38.576;2023-01-25T06:21:10;-3.85;74.60
64874;HTU21D;51367;45.204;38.576;2023-01-25T06:23:36;-3.79;74.59
64874;HTU21D;51367;45.204;38.576;2023-01-25T06:26:05;-3.74;74.70
64874;HTU21D;51367;45.204;38.576;2023-01-25T06:28:32;-3.64;74.80
64874;HTU21D;51367;45.204;38.576;2023-01-25T06:31:03;-3.55;74.70
64874;HTU21D;51367;45.204;38.576;2023-01-25T06:33:30;-3.50;74.71
64874;HTU21D;51367;45.204;38.576;2023-01-25T06:36:10;-3.41;74.77
64874;HTU21D;51367;45.204;38.576;2023-01-25T06:38:36;-3.33;74.72
64874;HTU21D;51367;45.204;38.576;2023-01-25T06:41:04;-3.30;74.69
64874;HTU21D;51367;45.204;38.576;2023-01-25T06:43:32;-3.21;74.75
64874;HTU21D;51367;45.204;38.576;2023-01-25T06:45:59;-3.12;74.76
64874;HTU21D;51367;45.204;38.576;2023-01-25T06:48:27;-3.04;74.72
64874;HTU21D;51367;45.204;38.576;2023-01-25T06:51:00;-2.94;74.70
64874;HTU21D;51367;45.204;38.576;2023-01-25T06:53:27;-2.83;74.65
64874;HTU21D;51367;45.204;38.576;2023-01-25T06:56:10;-2.72;74.64
64874;HTU21D;51367;45.204;38.576;2023-01-25T06:58:37;-2.61;74.58
64874;HTU21D;51367;45.204;38.576;2023-01-25T07:01:12;-2.54;74.44
64874;HTU21D;51367;45.204;38.576;2023-01-25T07:03:39;-2.48;74.45
64874;HTU21D;51367;45.204;38.576;2023-01-25T07:06:07;-2.41;74.54
64874;HTU21D;51367;45.204;38.576;2023-01-25T07:08:35;-2.31;74.55
64874;HTU21D;51367;45.204;38.576;2023-01-25T07:11:03;-2.23;74.54
64874;HTU21D;51367;45.204;38.576;2023-01-25T07:13:31;-2.17;74.54
64874;HTU21D;51367;45.204;38.576;2023-01-25T07:15:59;-2.13;74.58
64874;HTU21D;51367;45.204;38.576;2023-01-25T07:18:27;-2.09;74.69
64874;HTU21D;51367;45.204;38.576;2023-01-25T07:21:00;-2.10;74.86
64874;HTU21D;51367;45.204;38.576;2023-01-25T07:23:27;-2.21;75.20
64874;HTU21D;51367;45.204;38.576;2023-01-25T07:25:52;-2.27;75.38
64874;HTU21D;51367;45.204;38.576;2023-01-25T07:28:18;-2.19;75.49
64874;HTU21D;51367;45.204;38.576;2023-01-25T07:30:44;-2.07;75.51
64874;HTU21D;51367;45.204;38.576;2023-01-25T07:33:10;-1.98;75.56
64874;HTU21D;51367;45.204;38.576;2023-01-25T07:35:37;-1.82;75.54
64874;HTU21D;51367;45.204;38.576;2023-01-25T07:38:03;-1.64;75.54
64874;HTU21D;51367;45.204;38.576;2023-01-25T07:40:29;-1.55;75.31
64874;HTU21D;51367;45.204;38.576;2023-01-25T07:42:55;-1.43;75.34
64874;HTU21D;51367;45.204;38.576;2023-01-25T07:45:23;-1.29;75.31
64874;HTU21D;51367;45.204;38.576;2023-01-25T07:47:58;-1.17;75.15
64874;HTU21D;51367;45.204;38.576;2023-01-25T07:50:25;-1.05;75.18
64874;HTU21D;51367;45.204;38.576;2023-01-25T07:52:52;-0.93;75.17
64874;HTU21D;51367;45.204;38.576;2023-01-25T07:55:19;-0.76;75.21
64874;HTU21D;51367;45.204;38.576;2023-01-25T07:57:45;-0.68;75.00
64874;HTU21D;51367;45.204;38.576;2023-01-25T08:00:12;-0.66;74.96
64874;HTU21D;51367;45.204;38.576;2023-01-25T08:02:39;-0.65;74.96
64874;HTU21D;51367;45.204;38.576;2023-01-25T08:05:05;-0.61;74.99
64874;HTU21D;51367;45.204;38.576;2023-01-25T08:07:31;-0.62;75.00
64874;HTU21D;51367;45.204;38.576;2023-01-25T08:09:57;-0.66;75.16
64874;HTU21D;51367;45.204;38.576;2023-01-25T08:12:23;-0.69;75.30
64874;HTU21D;51367;45.204;38.576;2023-01-25T08:14:52;-0.59;75.50
64874;HTU21D;51367;45.204;38.576;2023-01-25T08:17:18;-0.46;75.49
64874;HTU21D;51367;45.204;38.576;2023-01-25T08:19:44;-0.32;75.40
64874;HTU21D;51367;45.204;38.576;2023-01-25T08:22:10;-0.22;75.24
64874;HTU21D;51367;45.204;38.576;2023-01-25T08:24:38;-0.10;75.16
64874;HTU21D;51367;45.204;38.576;2023-01-25T08:27:04;0.02;75.10
64874;HTU21D;51367;45.204;38.576;2023-01-25T08:29:30;0.09;75.02
64874;HTU21D;51367;45.204;38.576;2023-01-25T08:31:56;0.13;75.06
64874;HTU21D;51367;45.204;38.576;2023-01-25T08:34:22;0.20;75.11
64874;HTU21D;51367;45.204;38.576;2023-01-25T08:36:48;0.28;75.04
64874;HTU21D;51367;45.204;38.576;2023-01-25T08:39:14;0.35;74.99
64874;HTU21D;51367;45.204;38.576;2023-01-25T08:41:42;0.46;74.99
64874;HTU21D;51367;45.204;38.576;2023-01-25T08:44:10;0.59;74.92
64874;HTU21D;51367;45.204;38.576;2023-01-25T08:46:36;0.68;74.69
64874;HTU21D;51367;45.204;38.576;2023-01-25T08:49:03;0.55;74.52
64874;HTU21D;51367;45.204;38.576;2023-01-25T08:51:30;0.37;74.99
64874;HTU21D;51367;45.204;38.576;2023-01-25T08:53:56;0.34;75.47
64874;HTU21D;51367;45.204;38.576;2023-01-25T08:56:22;0.42;75.71
64874;HTU21D;51367;45.204;38.576;2023-01-25T08:58:49;0.55;75.79
64874;HTU21D;51367;45.204;38.576;2023-01-25T09:01:16;0.69;75.67
64874;HTU21D;51367;45.204;38.576;2023-01-25T09:03:45;0.77;75.54
64874;HTU21D;51367;45.204;38.576;2023-01-25T09:06:11;0.81;75.48
64874;HTU21D;51367;45.204;38.576;2023-01-25T09:08:38;0.82;75.55
64874;HTU21D;51367;45.204;38.576;2023-01-25T09:11:13;0.78;75.63
64874;HTU21D;51367;45.204;38.576;2023-01-25T09:13:40;0.74;75.91
64874;HTU21D;51367;45.204;38.576;2023-01-25T09:16:11;0.71;76.07
64874;HTU21D;51367;45.204;38.576;2023-01-25T09:18:39;0.62;76.53
64874;HTU21D;51367;45.204;38.576;2023-01-25T09:21:15;0.61;76.73
64874;HTU21D;51367;45.204;38.576;2023-01-25T09:23:41;0.71;76.92
64874;HTU21D;51367;45.204;38.576;2023-01-25T09:26:10;0.89;76.94
64874;HTU21D;51367;45.204;38.576;2023-01-25T09:28:36;1.11;76.85
64874;HTU21D;51367;45.204;38.576;2023-01-25T09:31:04;1.25;76.27
64874;HTU21D;51367;45.204;38.576;2023-01-25T09:33:50;1.36;76.03
64874;HTU21D;51367;45.204;38.576;2023-01-25T09:36:17;1.46;75.92
64874;HTU21D;51367;45.204;38.576;2023-01-25T09:38:43;1.56;75.85
64874;HTU21D;51367;45.204;38.576;2023-01-25T09:54:08;2.42;74.89
64874;HTU21D;51367;45.204;38.576;2023-01-25T09:56:37;2.42;74.92
64874;HTU21D;51367;45.204;38.576;2023-01-25T09:59:10;2.45;74.97
64874;HTU21D;51367;45.204;38.576;2023-01-25T10:02:00;2.52;74.96
64874;HTU21D;51367;45.204;38.576;2023-01-25T10:04:41;2.65;74.97
64874;HTU21D;51367;45.204;38.576;2023-01-25T10:07:27;2.79;74.83
64874;HTU21D;51367;45.204;38.576;2023-01-25T10:10:49;2.82;74.65
64874;HTU21D;51367;45.204;38.576;2023-01-25T10:13:12;2.89;74.62
64874;HTU21D;51367;45.204;38.576;2023-01-25T10:16:52;2.95;74.61
64874;HTU21D;51367;45.204;38.576;2023-01-25T10:19:18;3.03;74.64
64874;HTU21D;51367;45.204;38.576;2023-01-25T10:22:16;3.12;74.60
64874;HTU21D;51367;45.204;38.576;2023-01-25T10:32:48;3.20;74.46
64874;HTU21D;51367;45.204;38.576;2023-01-25T10:35:18;3.20;74.54
64874;HTU21D;51367;45.204;38.576;2023-01-25T10:37:44;3.17;74.49
64874;HTU21D;51367;45.204;38.576;2023-01-25T10:40:20;3.13;74.64
64874;HTU21D;51367;45.204;38.576;2023-01-25T10:42:55;2.98;74.60
64874;HTU21D;51367;45.204;38.576;2023-01-25T10:45:23;2.91;74.86
64874;HTU21D;51367;45.204;38.576;2023-01-25T10:47:53;2.90;75.00
64874;HTU21D;51367;45.204;38.576;2023-01-25T10:53:27;2.79;75.42
64874;HTU21D;51367;45.204;38.576;2023-01-25T10:55:57;2.87;75.41
64874;HTU21D;51367;45.204;38.576;2023-01-25T11:00:58;3.05;75.34
64874;HTU21D;51367;45.204;38.576;2023-01-25T11:03:34;3.19;75.24
64874;HTU21D;51367;45.204;38.576;2023-01-25T11:06:00;3.29;75.06
64874;HTU21D;51367;45.204;38.576;2023-01-25T11:10:57;3.41;74.80
64874;HTU21D;51367;45.204;38.576;2023-01-25T11:13:24;3.48;74.65
64874;HTU21D;51367;45.204;38.576;2023-01-25T11:16:15;3.53;74.54
64874;HTU21D;51367;45.204;38.576;2023-01-25T11:18:54;3.61;74.45
64874;HTU21D;51367;45.204;38.576;2023-01-25T11:21:31;3.65;74.38
64874;HTU21D;51367;45.204;38.576;2023-01-25T11:26:37;3.69;74.25
64874;HTU21D;51367;45.204;38.576;2023-01-25T11:29:12;3.69;74.22
64874;HTU21D;51367;45.204;38.576;2023-01-25T11:31:40;3.63;74.39
64874;HTU21D;51367;45.204;38.576;2023-01-25T11:34:13;3.62;74.49
64874;HTU21D;51367;45.204;38.576;2023-01-25T11:39:15;3.73;74.54
64874;HTU21D;51367;45.204;38.576;2023-01-25T11:41:59;3.79;74.43
64874;HTU21D;51367;45.204;38.576;2023-01-25T11:50:23;4.00;73.97
64874;HTU21D;51367;45.204;38.576;2023-01-25T11:52:57;3.97;73.93
64874;HTU21D;51367;45.204;38.576;2023-01-25T11:55:36;3.90;74.03
64874;HTU21D;51367;45.204;38.576;2023-01-25T12:01:07;3.82;74.36
64874;HTU21D;51367;45.204;38.576;2023-01-25T12:11:55;4.09;74.08
64874;HTU21D;51367;45.204;38.576;2023-01-25T12:20:09;4.18;73.89
64874;HTU21D;51367;45.204;38.576;2023-01-25T12:22:51;4.19;73.96
64874;HTU21D;51367;45.204;38.576;2023-01-25T12:25:31;4.26;73.94
64874;HTU21D;51367;45.204;38.576;2023-01-25T12:30:51;4.29;73.71
64874;HTU21D;51367;45.204;38.576;2023-01-25T12:39:04;4.31;73.76
64874;HTU21D;51367;45.204;38.576;2023-01-25T12:42:05;4.34;73.73
64874;HTU21D;51367;45.204;38.576;2023-01-25T12:44:38;4.32;73.63
64874;HTU21D;51367;45.204;38.576;2023-01-25T12:47:13;4.30;73.68
64874;HTU21D;51367;45.204;38.576;2023-01-25T12:54:56;4.28;73.81
64874;HTU21D;51367;45.204;38.576;2023-01-25T12:58:09;4.29;73.80
64874;HTU21D;51367;45.204;38.576;2023-01-25T13:13:49;4.24;73.86
64874;HTU21D;51367;45.204;38.576;2023-01-25T13:16:34;4.26;73.79
64874;HTU21D;51367;45.204;38.576;2023-01-25T13:19:01;4.27;73.73
64874;HTU21D;51367;45.204;38.576;2023-01-25T13:24:12;4.22;73.65
64874;HTU21D;51367;45.204;38.576;2023-01-25T13:26:47;4.19;73.69
64874;HTU21D;51367;45.204;38.576;2023-01-25T13:32:01;4.14;73.80
64874;HTU21D;51367;45.204;38.576;2023-01-25T13:37:17;4.08;73.80
64874;HTU21D;51367;45.204;38.576;2023-01-25T13:39:47;4.05;73.78
64874;HTU21D;51367;45.204;38.576;2023-01-25T13:42:17;4.02;73.78
64874;HTU21D;51367;45.204;38.576;2023-01-25T13:44:46;3.99;73.79
64874;HTU21D;51367;45.204;38.576;2023-01-25T13:47:15;3.93;73.80
64874;HTU21D;51367;45.204;38.576;2023-01-25T13:49:51;3.87;73.82
64874;HTU21D;51367;45.204;38.576;2023-01-25T13:52:20;3.82;73.85
64874;HTU21D;51367;45.204;38.576;2023-01-25T13:54:48;3.76;73.89
64874;HTU21D;51367;45.204;38.576;2023-01-25T13:57:19;3.71;73.93
64874;HTU21D;51367;45.204;38.576;2023-01-25T13:59:46;3.63;73.96
64874;HTU21D;51367;45.204;38.576;2023-01-25T14:02:23;3.58;73.99
64874;HTU21D;51367;45.204;38.576;2023-01-25T14:04:51;3.48;74.02
64874;HTU21D;51367;45.204;38.576;2023-01-25T14:07:19;3.42;74.06
64874;HTU21D;51367;45.204;38.576;2023-01-25T14:09:47;3.33;74.08
64874;HTU21D;51367;45.204;38.576;2023-01-25T14:14:53;3.17;74.18
64874;HTU21D;51367;45.204;38.576;2023-01-25T14:17:23;3.09;74.22
64874;HTU21D;51367;45.204;38.576;2023-01-25T14:19:52;2.97;74.25
64874;HTU21D;51367;45.204;38.576;2023-01-25T14:22:32;2.87;74.28
64874;HTU21D;51367;45.204;38.576;2023-01-25T14:25:19;2.74;74.31
64874;HTU21D;51367;45.204;38.576;2023-01-25T14:28:01;2.61;74.36
64874;HTU21D;51367;45.204;38.576;2023-01-25T14:30:35;2.52;74.41
64874;HTU21D;51367;45.204;38.576;2023-01-25T14:33:15;2.40;74.45
64874;HTU21D;51367;45.204;38.576;2023-01-25T14:35:43;2.27;74.46
64874;HTU21D;51367;45.204;38.576;2023-01-25T14:38:20;2.12;74.56
64874;HTU21D;51367;45.204;38.576;2023-01-25T14:40:46;1.98;74.61
64874;HTU21D;51367;45.204;38.576;2023-01-25T14:43:14;1.82;74.72
64874;HTU21D;51367;45.204;38.576;2023-01-25T14:45:41;1.66;74.88
64874;HTU21D;51367;45.204;38.576;2023-01-25T14:48:36;1.51;75.02
64874;HTU21D;51367;45.204;38.576;2023-01-25T14:51:13;1.37;75.08
64874;HTU21D;51367;45.204;38.576;2023-01-25T14:53:43;1.24;75.14
64874;HTU21D;51367;45.204;38.576;2023-01-25T14:58:47;0.98;75.29
64874;HTU21D;51367;45.204;38.576;2023-01-25T15:01:25;0.86;75.34
64874;HTU21D;51367;45.204;38.576;2023-01-25T15:03:52;0.72;75.42
64874;HTU21D;51367;45.204;38.576;2023-01-25T15:06:18;0.62;75.50
64874;HTU21D;51367;45.204;38.576;2023-01-25T15:08:44;0.51;75.54
64874;HTU21D;51367;45.204;38.576;2023-01-25T15:14:18;0.27;75.56
64874;HTU21D;51367;45.204;38.576;2023-01-25T15:16:45;0.18;75.56
64874;HTU21D;51367;45.204;38.576;2023-01-25T15:19:28;0.04;75.51
64874;HTU21D;51367;45.204;38.576;2023-01-25T15:21:57;-0.10;75.54
64874;HTU21D;51367;45.204;38.576;2023-01-25T15:24:24;-0.22;75.57
64874;HTU21D;51367;45.204;38.576;2023-01-25T15:26:51;-0.35;75.62
64874;HTU21D;51367;45.204;38.576;2023-01-25T15:29:22;-0.49;75.69
64874;HTU21D;51367;45.204;38.576;2023-01-25T15:31:51;-0.60;75.79
64874;HTU21D;51367;45.204;38.576;2023-01-25T15:34:26;-0.72;75.83
64874;HTU21D;51367;45.204;38.576;2023-01-25T15:36:54;-0.81;75.88
64874;HTU21D;51367;45.204;38.576;2023-01-25T15:39:20;-0.87;75.92
64874;HTU21D;51367;45.204;38.576;2023-01-25T15:41:46;-0.94;75.90
64874;HTU21D;51367;45.204;38.576;2023-01-25T15:44:13;-1.01;75.88
64874;HTU21D;51367;45.204;38.576;2023-01-25T15:46:42;-1.09;75.86
64874;HTU21D;51367;45.204;38.576;2023-01-25T15:49:16;-1.14;75.85
64874;HTU21D;51367;45.204;38.576;2023-01-25T15:51:43;-1.19;75.85
64874;HTU21D;51367;45.204;38.576;2023-01-25T15:54:09;-1.27;75.82
64874;HTU21D;51367;45.204;38.576;2023-01-25T15:56:36;-1.34;75.89
64874;HTU21D;51367;45.204;38.576;2023-01-25T15:59:08;-1.42;75.89
64874;HTU21D;51367;45.204;38.576;2023-01-25T16:01:38;-1.48;75.90
64874;HTU21D;51367;45.204;38.576;2023-01-25T16:04:04;-1.55;75.90
64874;HTU21D;51367;45.204;38.576;2023-01-25T16:06:44;-1.60;75.92
64874;HTU21D;51367;45.204;38.576;2023-01-25T16:09:14;-1.68;75.93
64874;HTU21D;51367;45.204;38.576;2023-01-25T16:11:41;-1.75;75.97
64874;HTU21D;51367;45.204;38.576;2023-01-25T16:14:07;-1.80;75.98
64874;HTU21D;51367;45.204;38.576;2023-01-25T16:16:38;-1.87;76.02
64874;HTU21D;51367;45.204;38.576;2023-01-25T16:19:05;-1.91;76.03
64874;HTU21D;51367;45.204;38.576;2023-01-25T16:21:31;-1.98;76.03
64874;HTU21D;51367;45.204;38.576;2023-01-25T16:23:57;-2.03;75.99
64874;HTU21D;51367;45.204;38.576;2023-01-25T16:26:25;-2.06;75.98
64874;HTU21D;51367;45.204;38.576;2023-01-25T16:28:52;-2.13;75.96
64874;HTU21D;51367;45.204;38.576;2023-01-25T16:31:18;-2.17;75.95
64874;HTU21D;51367;45.204;38.576;2023-01-25T16:33:44;-2.22;75.97
64874;HTU21D;51367;45.204;38.576;2023-01-25T16:36:14;-2.28;75.96
64874;HTU21D;51367;45.204;38.576;2023-01-25T16:38:40;-2.34;75.96
64874;HTU21D;51367;45.204;38.576;2023-01-25T16:41:06;-2.39;75.96
64874;HTU21D;51367;45.204;38.576;2023-01-25T16:43:32;-2.45;75.98
64874;HTU21D;51367;45.204;38.576;2023-01-25T16:45:58;-2.49;75.97
64874;HTU21D;51367;45.204;38.576;2023-01-25T16:48:24;-2.56;76.00
64874;HTU21D;51367;45.204;38.576;2023-01-25T16:50:51;-2.59;75.99
64874;HTU21D;51367;45.204;38.576;2023-01-25T16:53:17;-2.62;75.98
64874;HTU21D;51367;45.204;38.576;2023-01-25T16:55:43;-2.68;75.97
64874;HTU21D;51367;45.204;38.576;2023-01-25T16:58:09;-2.72;75.99
64874;HTU21D;51367;45.204;38.576;2023-01-25T17:00:35;-2.76;76.02
64874;HTU21D;51367;45.204;38.576;2023-01-25T17:03:01;-2.80;76.02
64874;HTU21D;51367;45.204;38.576;2023-01-25T17:05:27;-2.83;76.08
64874;HTU21D;51367;45.204;38.576;2023-01-25T17:07:56;-2.89;76.05
64874;HTU21D;51367;45.204;38.576;2023-01-25T17:10:22;-2.92;76.05
64874;HTU21D;51367;45.204;38.576;2023-01-25T17:12:48;-2.96;75.99
64874;HTU21D;51367;45.204;38.576;2023-01-25T17:15:15;-3.02;76.05